Stubblefield, Illinois
Current Conditions -  °F | °C
As of 4:35 AM on Friday 21 Nov 2014 (Local Time) from K3LF Reporting Station
Clear Clear  
Wind Chill:   Ceiling: Unl
Heat Index: 19°   Visibility: 10mi
Dew Point: 10°   Wind: 7mph
Humidity: 71%   Direction: 80°E
Pressure: 30.38"   Gusts: NA
Location:  38.895°N, 89.397°W
Report Text: K3LF 211035Z AUTO 08006KT 10SM CLR M07/M12 A3038 RMK AO2 T10751120
Loading
Personal Weather Stations






























Interactive Weather Map New forecast layout! Learn more

10-Day Weather Forecast

Advertisements
Track Severe Weather on mobile